createdAt,value
2019-01-13T00:01:18.098Z,0
2019-01-13T00:04:24.023Z,0
2019-01-13T00:07:30.062Z,0
2019-01-13T00:10:35.939Z,0
2019-01-13T00:13:41.992Z,0
2019-01-13T00:16:47.853Z,0
2019-01-13T00:19:53.800Z,0
2019-01-13T00:22:59.759Z,0
2019-01-13T00:26:05.726Z,0
2019-01-13T00:29:11.595Z,0
2019-01-13T00:32:17.539Z,0
2019-01-13T00:35:23.500Z,0
2019-01-13T00:38:29.577Z,0
2019-01-13T00:41:36.983Z,0
2019-01-13T00:44:44.505Z,0
2019-01-13T00:47:50.426Z,0
2019-01-13T00:50:56.363Z,0
2019-01-13T00:54:02.324Z,0
2019-01-13T00:57:08.283Z,0
2019-01-13T01:00:14.257Z,0
2019-01-13T01:03:20.207Z,0
2019-01-13T01:06:26.165Z,0
2019-01-13T01:09:32.124Z,0
2019-01-13T01:12:37.998Z,0
2019-01-13T01:15:44.015Z,0
2019-01-13T01:18:50.009Z,0
2019-01-13T01:21:55.875Z,0
2019-01-13T01:25:02.026Z,0
2019-01-13T01:28:08.087Z,0
2019-01-13T01:31:13.962Z,0
2019-01-13T01:34:22.730Z,0
2019-01-13T01:37:28.748Z,0
2019-01-13T01:40:34.800Z,0
2019-01-13T01:43:40.804Z,0
2019-01-13T01:46:46.824Z,0
2019-01-13T01:49:52.773Z,0
2019-01-13T01:52:58.730Z,0
2019-01-13T01:56:06.338Z,0
2019-01-13T01:59:12.222Z,0
2019-01-13T02:02:18.184Z,0
2019-01-13T02:05:24.259Z,0
2019-01-13T02:08:31.600Z,0
2019-01-13T02:11:37.560Z,0
2019-01-13T02:14:43.634Z,0
2019-01-13T02:17:49.614Z,0
2019-01-13T02:20:55.539Z,0
2019-01-13T02:24:01.514Z,0
2019-01-13T02:27:07.443Z,0
2019-01-13T02:30:13.425Z,0
2019-01-13T02:33:19.384Z,0
2019-01-13T02:36:25.291Z,0
2019-01-13T02:39:31.299Z,0
2019-01-13T02:42:37.258Z,0
2019-01-13T02:45:43.198Z,0
2019-01-13T02:48:49.294Z,0
2019-01-13T02:51:55.238Z,0
2019-01-13T02:55:01.110Z,0
2019-01-13T02:58:07.168Z,0
2019-01-13T03:01:13.232Z,0
2019-01-13T03:04:19.105Z,0
2019-01-13T03:07:25.143Z,0
2019-01-13T03:10:31.121Z,0
2019-01-13T03:13:37.154Z,0
2019-01-13T03:16:43.125Z,0
2019-01-13T03:19:49.076Z,0
2019-01-13T03:22:55.074Z,0
2019-01-13T03:26:01.098Z,0
2019-01-13T03:29:07.070Z,0
2019-01-13T03:32:13.324Z,0
2019-01-13T03:35:19.285Z,0
2019-01-13T03:38:25.414Z,0
2019-01-13T03:41:31.307Z,0
2019-01-13T03:44:37.369Z,0
2019-01-13T03:47:43.330Z,0
2019-01-13T03:50:49.408Z,0
2019-01-13T03:53:55.284Z,0
2019-01-13T03:57:01.207Z,0
2019-01-13T04:00:07.165Z,0
2019-01-13T04:03:13.039Z,0
2019-01-13T04:06:19.085Z,0
2019-01-13T04:09:25.045Z,0
2019-01-13T04:12:30.943Z,0
2019-01-13T04:15:36.870Z,0
2019-01-13T04:18:42.933Z,0
2019-01-13T04:21:48.996Z,0
2019-01-13T04:24:54.874Z,0
2019-01-13T04:28:00.812Z,0
2019-01-13T04:31:06.774Z,0
2019-01-13T04:34:12.731Z,0
2019-01-13T04:37:18.798Z,0
2019-01-13T04:40:24.725Z,0
2019-01-13T04:43:31.734Z,0
2019-01-13T04:46:39.229Z,0
2019-01-13T04:49:45.289Z,0
2019-01-13T04:52:51.245Z,0
2019-01-13T04:55:57.210Z,0
2019-01-13T04:59:03.369Z,0
2019-01-13T05:02:09.334Z,0
2019-01-13T05:05:15.287Z,0
2019-01-13T05:08:21.350Z,0
2019-01-13T05:11:27.222Z,0
2019-01-13T05:14:33.165Z,0.6
2019-01-13T05:17:39.139Z,0
2019-01-13T05:20:45.185Z,0
2019-01-13T05:23:51.156Z,0
2019-01-13T05:26:57.187Z,0
2019-01-13T05:30:03.287Z,0
2019-01-13T05:33:09.208Z,0
2019-01-13T05:36:15.191Z,0
2019-01-13T05:39:21.248Z,0
2019-01-13T05:42:27.119Z,0.1
2019-01-13T05:45:33.178Z,0.1
2019-01-13T05:48:39.143Z,0.2
2019-01-13T05:51:45.198Z,0.3
2019-01-13T05:54:51.120Z,0.4
2019-01-13T05:57:57.187Z,0.5
2019-01-13T06:01:03.139Z,0.6
2019-01-13T06:04:09.131Z,0.8
2019-01-13T06:07:16.739Z,1
2019-01-13T06:10:22.787Z,1.1
2019-01-13T06:13:28.660Z,1.3
2019-01-13T06:16:37.476Z,1.3
2019-01-13T06:19:43.541Z,1.4
2019-01-13T06:22:49.599Z,1.5
2019-01-13T06:25:55.466Z,1.6
2019-01-13T06:29:01.466Z,1.9
2019-01-13T06:32:07.334Z,2.4
2019-01-13T06:35:13.395Z,2.7
2019-01-13T06:38:19.396Z,3.1
2019-01-13T06:41:25.330Z,3.5
2019-01-13T06:44:31.312Z,3.9
2019-01-13T06:47:38.302Z,4.4
2019-01-13T06:50:44.274Z,5.3
2019-01-13T06:53:50.314Z,6.1
2019-01-13T06:56:56.275Z,6.5
2019-01-13T07:00:02.242Z,6.8
2019-01-13T07:03:08.112Z,7.3
2019-01-13T07:06:14.054Z,7.5
2019-01-13T07:09:19.927Z,7.6
2019-01-13T07:12:25.873Z,8
2019-01-13T07:15:31.742Z,8.4
2019-01-13T07:18:37.689Z,9.1
2019-01-13T07:21:43.651Z,10
2019-01-13T07:24:49.609Z,10.9
2019-01-13T07:27:55.669Z,12.5
2019-01-13T07:31:01.540Z,14.7
2019-01-13T07:34:07.493Z,14.4
2019-01-13T07:37:13.453Z,13.6
2019-01-13T07:40:19.415Z,14.3
2019-01-13T07:43:25.463Z,15.8
2019-01-13T07:46:31.336Z,16.5
2019-01-13T07:49:38.685Z,15.6
2019-01-13T07:52:44.782Z,14.8
2019-01-13T07:55:50.727Z,14.6
2019-01-13T07:58:56.806Z,115.9
2019-01-13T08:02:02.680Z,214.6
2019-01-13T08:05:08.615Z,257.8
2019-01-13T08:08:16.936Z,266.4
2019-01-13T08:11:22.887Z,270.7
2019-01-13T08:14:28.786Z,276.5
2019-01-13T08:17:34.808Z,279.4
2019-01-13T08:20:40.682Z,280.8
2019-01-13T08:23:46.822Z,282.2
2019-01-13T08:26:52.694Z,279.4
2019-01-13T08:29:58.654Z,277.9
2019-01-13T08:33:04.518Z,273.6
2019-01-13T08:36:10.615Z,275
2019-01-13T08:39:16.487Z,277.9
2019-01-13T08:42:22.596Z,280.8
2019-01-13T08:45:28.544Z,282.2
2019-01-13T08:48:34.508Z,283.7
2019-01-13T08:51:40.378Z,283.7
2019-01-13T08:54:46.376Z,286.6
2019-01-13T08:57:52.281Z,288
2019-01-13T09:00:58.211Z,285.1
2019-01-13T09:04:04.164Z,283.7
2019-01-13T09:07:10.262Z,280.8
2019-01-13T09:10:16.327Z,280.8
2019-01-13T09:13:22.283Z,282.2
2019-01-13T09:16:28.242Z,283.7
2019-01-13T09:19:34.308Z,285.1
2019-01-13T09:22:40.570Z,286.6
2019-01-13T09:25:46.637Z,288
2019-01-13T09:28:52.514Z,286.6
2019-01-13T09:31:58.554Z,289.4
2019-01-13T09:35:04.619Z,286.6
2019-01-13T09:38:10.678Z,288
2019-01-13T09:41:16.826Z,286.6
2019-01-13T09:44:22.802Z,295.2
2019-01-13T09:47:28.864Z,298.1
2019-01-13T09:50:34.823Z,299.5
2019-01-13T09:53:40.785Z,298.1
2019-01-13T09:56:46.657Z,299.5
2019-01-13T09:59:52.602Z,298.1
2019-01-13T10:02:58.558Z,301
2019-01-13T10:06:04.621Z,299.5
2019-01-13T10:09:10.499Z,299.5
2019-01-13T10:12:16.588Z,299.5
2019-01-13T10:15:22.460Z,299.5
2019-01-13T10:18:28.491Z,298.1
2019-01-13T10:21:34.399Z,296.6
2019-01-13T10:24:40.382Z,296.6
2019-01-13T10:27:46.343Z,298.1
2019-01-13T10:30:52.299Z,296.6
2019-01-13T10:33:58.259Z,296.6
2019-01-13T10:37:04.219Z,293.8
2019-01-13T10:40:10.085Z,293.8
2019-01-13T10:43:17.425Z,296.6
2019-01-13T10:46:23.317Z,298.1
2019-01-13T10:49:29.331Z,299.5
2019-01-13T10:52:35.348Z,301
2019-01-13T10:55:41.284Z,303.8
2019-01-13T10:58:47.169Z,305.3
2019-01-13T11:01:53.127Z,303.8
2019-01-13T11:04:58.994Z,295.2
2019-01-13T11:08:12.656Z,295.2
2019-01-13T11:11:18.586Z,298.1
2019-01-13T11:14:24.740Z,298.1
2019-01-13T11:17:30.681Z,298.1
2019-01-13T11:20:36.658Z,298.1
2019-01-13T11:23:42.619Z,298.1
2019-01-13T11:26:48.490Z,299.5
2019-01-13T11:29:54.453Z,298.1
2019-01-13T11:33:00.402Z,295.2
2019-01-13T11:36:13.728Z,296.6
2019-01-13T11:39:19.699Z,25
2019-01-13T11:42:25.646Z,19.8
2019-01-13T11:45:31.616Z,18
2019-01-13T11:48:37.664Z,16.8
2019-01-13T11:51:43.557Z,15.9
2019-01-13T11:54:49.482Z,15.6
2019-01-13T11:57:55.598Z,15.5
2019-01-13T12:01:01.606Z,15.7
2019-01-13T12:04:07.568Z,15.8
2019-01-13T12:07:13.444Z,16.6
2019-01-13T12:10:19.386Z,17.4
2019-01-13T12:13:25.464Z,17.4
2019-01-13T12:16:31.529Z,16.6
2019-01-13T12:19:37.468Z,16.4
2019-01-13T12:22:43.344Z,16.1
2019-01-13T12:25:55.735Z,16.3
2019-01-13T12:29:01.816Z,17.1
2019-01-13T12:32:07.756Z,17.5
2019-01-13T12:35:13.823Z,16.7
2019-01-13T12:38:19.778Z,15.7
2019-01-13T12:41:25.734Z,14.9
2019-01-13T12:44:31.699Z,14.8
2019-01-13T12:47:37.568Z,14.2
2019-01-13T12:50:45.305Z,13.5
2019-01-13T12:53:51.218Z,13.9
2019-01-13T12:56:57.096Z,14.6
2019-01-13T13:00:03.183Z,14.7
2019-01-13T13:03:09.198Z,14.8
2019-01-13T13:06:15.097Z,14.7
2019-01-13T13:09:21.121Z,14.3
2019-01-13T13:12:27.077Z,12.8
2019-01-13T13:15:33.067Z,86
2019-01-13T13:18:38.942Z,118.1
2019-01-13T13:21:44.884Z,12
2019-01-13T13:24:50.748Z,12.4
2019-01-13T13:27:56.667Z,12.2
2019-01-13T13:31:02.728Z,11.5
2019-01-13T13:34:08.664Z,10.7
2019-01-13T13:37:14.758Z,10.1
2019-01-13T13:40:21.818Z,9.6
2019-01-13T13:43:27.999Z,8.6
2019-01-13T13:46:34.015Z,7.9
2019-01-13T13:49:39.899Z,7.3
2019-01-13T13:52:45.882Z,7.2
2019-01-13T13:55:51.807Z,7.7
2019-01-13T13:58:57.910Z,7.5
2019-01-13T14:02:03.870Z,7
2019-01-13T14:05:11.470Z,5.8
2019-01-13T14:08:17.328Z,4.7
2019-01-13T14:11:23.276Z,197.3
2019-01-13T14:14:29.240Z,249.1
2019-01-13T14:17:35.123Z,260.6
2019-01-13T14:20:41.158Z,263.5
2019-01-13T14:23:47.025Z,266.4
2019-01-13T14:26:52.972Z,266.4
2019-01-13T14:29:59.032Z,265
2019-01-13T14:33:05.096Z,265
2019-01-13T14:36:11.052Z,250.6
2019-01-13T14:39:17.318Z,760.3
2019-01-13T14:42:23.255Z,260.6
2019-01-13T14:45:29.247Z,213.1
2019-01-13T14:48:35.110Z,260.6
2019-01-13T14:51:44.347Z,260.6
2019-01-13T14:54:56.780Z,259.2
2019-01-13T14:58:07.351Z,259.2
2019-01-13T15:01:16.804Z,257.8
2019-01-13T15:04:25.324Z,259.2
2019-01-13T15:07:34.563Z,259.2
2019-01-13T15:10:46.385Z,257.8
2019-01-13T15:13:54.575Z,257.8
2019-01-13T15:17:03.888Z,256.3
2019-01-13T15:20:09.762Z,259.2
2019-01-13T15:23:15.778Z,257.8
2019-01-13T15:26:21.659Z,257.8
2019-01-13T15:29:27.660Z,257.8
2019-01-13T15:32:35.148Z,257.8
2019-01-13T15:35:47.572Z,257.8
2019-01-13T15:38:57.539Z,256.3
2019-01-13T15:42:05.716Z,256.3
2019-01-13T15:45:12.254Z,256.3
2019-01-13T15:48:18.206Z,256.3
2019-01-13T15:51:24.178Z,256.3
2019-01-13T15:54:30.319Z,256.3
2019-01-13T15:57:39.138Z,254.9
2019-01-13T16:00:49.070Z,256.3
2019-01-13T16:03:55.678Z,256.3
2019-01-13T16:07:02.729Z,257.8
2019-01-13T16:10:12.901Z,257.8
2019-01-13T16:13:20.570Z,257.8
2019-01-13T16:16:28.242Z,257.8
2019-01-13T16:19:37.252Z,257.8
2019-01-13T16:22:45.976Z,257.8
2019-01-13T16:25:51.934Z,256.3
2019-01-13T16:28:58.339Z,256.3
2019-01-13T16:32:06.788Z,256.3
2019-01-13T16:35:13.316Z,256.3
2019-01-13T16:38:19.192Z,256.3
2019-01-13T16:41:25.124Z,256.3
2019-01-13T16:44:31.191Z,256.3
2019-01-13T16:47:37.221Z,257.8
2019-01-13T16:50:43.190Z,256.3
2019-01-13T16:53:49.262Z,257.8
2019-01-13T16:56:55.580Z,256.3
2019-01-13T17:00:01.588Z,256.3
2019-01-13T17:03:07.752Z,257.8
2019-01-13T17:06:16.572Z,257.8
2019-01-13T17:09:22.571Z,257.8
2019-01-13T17:12:28.702Z,256.3
2019-01-13T17:15:34.743Z,257.8
2019-01-13T17:18:40.726Z,257.8
2019-01-13T17:21:46.875Z,259.2
2019-01-13T17:24:53.080Z,257.8
2019-01-13T17:27:59.119Z,257.8
2019-01-13T17:31:05.231Z,257.8
2019-01-13T17:34:11.291Z,257.8
2019-01-13T17:37:17.354Z,257.8
2019-01-13T17:40:23.357Z,257.8
2019-01-13T17:43:29.417Z,259.2
2019-01-13T17:46:35.664Z,257.8
2019-01-13T17:49:41.745Z,257.8
2019-01-13T17:52:47.921Z,259.2
2019-01-13T17:55:53.877Z,257.8
2019-01-13T17:58:59.877Z,257.8
2019-01-13T18:02:05.990Z,257.8
2019-01-13T18:05:12.027Z,257.8
2019-01-13T18:08:20.264Z,259.2
2019-01-13T18:11:28.918Z,259.2
2019-01-13T18:14:35.040Z,259.2
2019-01-13T18:17:41.216Z,259.2
2019-01-13T18:20:47.579Z,259.2
2019-01-13T18:23:53.758Z,259.2
2019-01-13T18:26:59.634Z,257.8
2019-01-13T18:30:05.675Z,259.2
2019-01-13T18:33:14.597Z,259.2
2019-01-13T18:36:20.791Z,259.2
2019-01-13T18:39:26.646Z,259.2
2019-01-13T18:42:32.701Z,259.2
2019-01-13T18:45:38.647Z,259.2
2019-01-13T18:48:44.725Z,259.2
2019-01-13T18:51:50.774Z,260.6
2019-01-13T18:54:56.733Z,259.2
2019-01-13T18:58:02.600Z,260.6
2019-01-13T19:01:08.519Z,259.2
2019-01-13T19:04:14.510Z,259.2
2019-01-13T19:07:20.386Z,259.2
2019-01-13T19:10:26.428Z,259.2
2019-01-13T19:13:35.364Z,259.2
2019-01-13T19:16:41.322Z,259.2
2019-01-13T19:19:47.251Z,256.3
2019-01-13T19:22:53.235Z,256.3
2019-01-13T19:25:59.246Z,256.3
2019-01-13T19:29:05.304Z,257.8
2019-01-13T19:32:11.314Z,257.8
2019-01-13T19:35:17.380Z,257.8
2019-01-13T19:38:23.339Z,257.8
2019-01-13T19:41:29.213Z,256.3
2019-01-13T19:44:35.159Z,257.8
2019-01-13T19:47:41.030Z,256.3
2019-01-13T19:50:46.986Z,256.3
2019-01-13T19:53:56.000Z,256.3
2019-01-13T19:57:01.875Z,257.8
2019-01-13T20:00:10.786Z,256.3
2019-01-13T20:03:16.753Z,256.3
2019-01-13T20:06:22.808Z,256.3
2019-01-13T20:09:28.963Z,256.3
2019-01-13T20:12:34.821Z,256.3
2019-01-13T20:15:40.787Z,256.3
2019-01-13T20:18:46.715Z,256.3
2019-01-13T20:21:52.708Z,256.3
2019-01-13T20:24:58.586Z,0
2019-01-13T20:28:04.525Z,0
2019-01-13T20:31:10.592Z,0
2019-01-13T20:34:16.655Z,0
2019-01-13T20:37:22.576Z,0
2019-01-13T20:40:28.572Z,0
2019-01-13T20:43:34.529Z,0
2019-01-13T20:46:42.244Z,0
2019-01-13T20:49:48.187Z,0
2019-01-13T20:52:54.146Z,0
2019-01-13T20:56:00.109Z,0
2019-01-13T20:59:06.170Z,0.8
2019-01-13T21:02:12.041Z,0.9
2019-01-13T21:05:18.087Z,0.9
2019-01-13T21:08:31.522Z,0.9
2019-01-13T21:11:37.398Z,0
2019-01-13T21:14:43.440Z,0
2019-01-13T21:17:49.326Z,0
2019-01-13T21:21:02.221Z,0
2019-01-13T21:24:11.046Z,0
2019-01-13T21:27:16.934Z,0
2019-01-13T21:30:22.864Z,0
2019-01-13T21:33:28.929Z,0
2019-01-13T21:36:34.956Z,0
2019-01-13T21:39:41.053Z,0
2019-01-13T21:42:47.012Z,0
2019-01-13T21:45:52.883Z,0
2019-01-13T21:48:58.942Z,0
2019-01-13T21:52:05.000Z,0
2019-01-13T21:55:10.862Z,0
2019-01-13T21:58:16.886Z,0
2019-01-13T22:01:22.872Z,0
2019-01-13T22:04:28.739Z,0
2019-01-13T22:07:34.693Z,0
2019-01-13T22:10:40.650Z,0
2019-01-13T22:13:46.605Z,0
2019-01-13T22:16:52.563Z,0
2019-01-13T22:19:58.625Z,0
2019-01-13T22:23:04.514Z,0
2019-01-13T22:26:10.658Z,0
2019-01-13T22:29:16.527Z,0
2019-01-13T22:32:22.566Z,0
2019-01-13T22:35:28.505Z,0
2019-01-13T22:38:34.487Z,0
2019-01-13T22:41:40.375Z,0
2019-01-13T22:44:46.414Z,0
2019-01-13T22:47:52.414Z,0
2019-01-13T22:50:59.357Z,0
2019-01-13T22:54:05.224Z,0
2019-01-13T22:57:11.175Z,0
2019-01-13T23:00:17.125Z,0
2019-01-13T23:03:23.022Z,0
2019-01-13T23:06:29.033Z,0
2019-01-13T23:09:35.007Z,0
2019-01-13T23:12:44.140Z,0
2019-01-13T23:15:50.003Z,0
2019-01-13T23:18:55.966Z,0
2019-01-13T23:22:01.919Z,0
2019-01-13T23:25:07.823Z,0
2019-01-13T23:28:13.839Z,0
2019-01-13T23:31:19.794Z,0
2019-01-13T23:34:30.031Z,0
2019-01-13T23:37:38.519Z,0
2019-01-13T23:40:44.535Z,0
2019-01-13T23:43:50.500Z,0
2019-01-13T23:46:56.459Z,0
2019-01-13T23:50:04.011Z,0
2019-01-13T23:53:10.028Z,0
2019-01-13T23:56:15.882Z,0
2019-01-13T23:59:21.844Z,0
